Airfield :
LOGIN :

Register | Disclaimer

   EN    FR    IT 

 










Legend :    VFR   Marginal VFR   IFR   Intensive IFR   Very Intensive IFR
Visi :
Ceiling :
>= 8 km
>= 3000ft
5 to 8 km
1000 to 3000 ft
1500m to 5 km
500 to 1000 ft
800 to 1500m
200 to 500 ft
< 800m
< 200 ft
Symbols :   Thunderstorms  Fog  Heavy snow  Heavy precipitations  Wind > 20 kt
SIGMETs :     Misc.  Thunderstorms  Icing  Turbulence  Mountain Waves  Volcanic Ashes






- Airport Elevation : 364 ft
- IATA code : FRA


EDDF - Frankfurt Int.

CURRENT METAR :
  • 262120Z 21004KT 1100 R25R/P2000N R25C/1500D R25L/0900D R18/P2000N BCFG BR SCT001 BKN003 02/02 Q1018 BECMG 0600 FG BKN002

EXPIRED METARs :
  • 262050Z 16004KT 140V200 2200 BR FEW001 BKN003 02/02 Q1018 BECMG 3000
  • 262020Z 19004KT 2500 BR SCT002 BKN003 02/02 Q1018 BECMG 3000
  • 261950Z 21003KT 2000 BR FEW001 BKN002 02/02 Q1018 TEMPO 0800 FG
  • 261920Z VRB02KT 0500 R25R/1600N R25C/P2000N R25L/P2000N R18/0900U FG VV/// 02/02 Q1018 TEMPO 0800 BKN002
  • 261850Z 16003KT 140V210 0250 R25R/1900N R25C/0900U R25L/0650N R18/0750N FG VV/// 02/02 Q1018 NOSIG

TAF AMD TAF EDDF
Valid from the 26 at 19:00 until the 28 at 00:00 UTC


261951Z 2619/2724 18004KT 3000 BR BKN002
TEMPO 2619/2624 0600 FG BKN001
TEMPO 2700/2703 5000 BKN005
BECMG 2705/2707 19010KT 8000 FEW006 BKN020
PROB40
TEMPO 2707/2714 4000 -RA BKN014
PROB30
TEMPO 2709/2724 20015G25KT
TEMPO 2714/2722 RA



MET'MAP, your aeronautical weather chart ! - Copyright ORBIFLY December 2007 - Disclaimer

ORBIFLY MET'MAP TEAM :

Programming & Development : Alexandra Zaïnal
Concept & original design : Baudouin d'Aumeries
Assistance for programming : Marc-Olivier Méhu
Technical & hardware support : Manuel Goepfert

Contact : metmap@orbifly.com




SOURCES & CREDITS :

   NOAA